sensor_id;sensor_type;location;lat;lon;timestamp;P1;durP1;ratioP1;P2;durP2;ratioP2
17854;SDS011;9053;53.358;6.382;2022-07-04T00:00:37;5.65;;;3.15;;
17854;SDS011;9053;53.358;6.382;2022-07-04T00:03:07;7.22;;;3.10;;
17854;SDS011;9053;53.358;6.382;2022-07-04T00:05:37;4.47;;;3.15;;
17854;SDS011;9053;53.358;6.382;2022-07-04T00:08:07;6.60;;;3.63;;
17854;SDS011;9053;53.358;6.382;2022-07-04T00:10:39;3.72;;;2.90;;
17854;SDS011;9053;53.358;6.382;2022-07-04T00:13:09;4.82;;;2.90;;
17854;SDS011;9053;53.358;6.382;2022-07-04T00:15:39;4.60;;;3.22;;
17854;SDS011;9053;53.358;6.382;2022-07-04T00:18:09;3.50;;;3.13;;
17854;SDS011;9053;53.358;6.382;2022-07-04T00:20:39;3.45;;;2.78;;
17854;SDS011;9053;53.358;6.382;2022-07-04T00:23:08;4.00;;;2.67;;
17854;SDS011;9053;53.358;6.382;2022-07-04T00:25:41;3.70;;;2.55;;
17854;SDS011;9053;53.358;6.382;2022-07-04T00:28:10;4.20;;;2.80;;
17854;SDS011;9053;53.358;6.382;2022-07-04T00:30:40;3.33;;;3.03;;
17854;SDS011;9053;53.358;6.382;2022-07-04T00:33:11;5.18;;;2.80;;
17854;SDS011;9053;53.358;6.382;2022-07-04T00:35:42;5.90;;;2.97;;
17854;SDS011;9053;53.358;6.382;2022-07-04T00:38:12;4.05;;;3.20;;
17854;SDS011;9053;53.358;6.382;2022-07-04T00:40:44;4.25;;;2.92;;
17854;SDS011;9053;53.358;6.382;2022-07-04T00:43:20;5.43;;;3.20;;
17854;SDS011;9053;53.358;6.382;2022-07-04T00:45:50;4.15;;;3.17;;
17854;SDS011;9053;53.358;6.382;2022-07-04T00:48:20;5.00;;;2.83;;
17854;SDS011;9053;53.358;6.382;2022-07-04T00:50:50;3.75;;;3.20;;
17854;SDS011;9053;53.358;6.382;2022-07-04T00:53:21;4.57;;;3.20;;
17854;SDS011;9053;53.358;6.382;2022-07-04T00:55:54;3.33;;;2.92;;
17854;SDS011;9053;53.358;6.382;2022-07-04T00:58:24;5.80;;;2.70;;
17854;SDS011;9053;53.358;6.382;2022-07-04T01:00:54;5.10;;;3.33;;
17854;SDS011;9053;53.358;6.382;2022-07-04T01:03:24;4.07;;;3.15;;
17854;SDS011;9053;53.358;6.382;2022-07-04T01:05:53;3.88;;;2.90;;
17854;SDS011;9053;53.358;6.382;2022-07-04T01:08:24;4.93;;;2.83;;
17854;SDS011;9053;53.358;6.382;2022-07-04T01:10:58;6.15;;;3.45;;
17854;SDS011;9053;53.358;6.382;2022-07-04T01:13:28;4.30;;;3.05;;
17854;SDS011;9053;53.358;6.382;2022-07-04T01:15:58;4.22;;;3.83;;
17854;SDS011;9053;53.358;6.382;2022-07-04T01:18:28;6.28;;;3.45;;
17854;SDS011;9053;53.358;6.382;2022-07-04T01:21:00;5.38;;;3.70;;
17854;SDS011;9053;53.358;6.382;2022-07-04T01:23:30;5.85;;;3.30;;
17854;SDS011;9053;53.358;6.382;2022-07-04T01:26:01;7.05;;;3.42;;
17854;SDS011;9053;53.358;6.382;2022-07-04T01:28:31;5.95;;;3.85;;
17854;SDS011;9053;53.358;6.382;2022-07-04T01:31:01;5.28;;;3.38;;
17854;SDS011;9053;53.358;6.382;2022-07-04T01:33:32;5.63;;;2.92;;
17854;SDS011;9053;53.358;6.382;2022-07-04T01:36:05;6.47;;;3.60;;
17854;SDS011;9053;53.358;6.382;2022-07-04T01:38:35;4.28;;;3.20;;
17854;SDS011;9053;53.358;6.382;2022-07-04T01:41:04;6.28;;;3.60;;
17854;SDS011;9053;53.358;6.382;2022-07-04T01:43:34;4.65;;;3.17;;
17854;SDS011;9053;53.358;6.382;2022-07-04T01:46:04;5.07;;;3.53;;
17854;SDS011;9053;53.358;6.382;2022-07-04T01:48:34;7.72;;;3.65;;
17854;SDS011;9053;53.358;6.382;2022-07-04T01:51:06;5.72;;;3.35;;
17854;SDS011;9053;53.358;6.382;2022-07-04T01:53:36;4.43;;;3.10;;
17854;SDS011;9053;53.358;6.382;2022-07-04T01:56:06;4.78;;;3.22;;
17854;SDS011;9053;53.358;6.382;2022-07-04T01:58:36;3.90;;;3.50;;
17854;SDS011;9053;53.358;6.382;2022-07-04T02:01:05;4.97;;;3.40;;
17854;SDS011;9053;53.358;6.382;2022-07-04T02:03:48;5.50;;;3.80;;
17854;SDS011;9053;53.358;6.382;2022-07-04T02:06:20;5.35;;;3.97;;
17854;SDS011;9053;53.358;6.382;2022-07-04T02:08:50;8.48;;;4.13;;
17854;SDS011;9053;53.358;6.382;2022-07-04T02:11:32;6.95;;;4.35;;
17854;SDS011;9053;53.358;6.382;2022-07-04T02:14:22;7.05;;;3.95;;
17854;SDS011;9053;53.358;6.382;2022-07-04T02:16:49;5.57;;;3.65;;
17854;SDS011;9053;53.358;6.382;2022-07-04T02:19:19;5.13;;;4.25;;
17854;SDS011;9053;53.358;6.382;2022-07-04T02:21:52;7.45;;;3.92;;
17854;SDS011;9053;53.358;6.382;2022-07-04T02:24:22;4.68;;;3.40;;
17854;SDS011;9053;53.358;6.382;2022-07-04T02:26:51;7.88;;;3.83;;
17854;SDS011;9053;53.358;6.382;2022-07-04T02:29:21;6.22;;;4.38;;
17854;SDS011;9053;53.358;6.382;2022-07-04T02:31:51;4.03;;;3.63;;
17854;SDS011;9053;53.358;6.382;2022-07-04T02:34:21;5.45;;;3.83;;
17854;SDS011;9053;53.358;6.382;2022-07-04T02:36:53;6.07;;;4.35;;
17854;SDS011;9053;53.358;6.382;2022-07-04T02:39:23;7.15;;;4.03;;
17854;SDS011;9053;53.358;6.382;2022-07-04T02:41:53;9.68;;;4.40;;
17854;SDS011;9053;53.358;6.382;2022-07-04T02:44:23;5.65;;;3.90;;
17854;SDS011;9053;53.358;6.382;2022-07-04T02:46:52;4.45;;;4.05;;
17854;SDS011;9053;53.358;6.382;2022-07-04T02:49:22;4.97;;;4.47;;
17854;SDS011;9053;53.358;6.382;2022-07-04T02:51:55;4.90;;;3.63;;
17854;SDS011;9053;53.358;6.382;2022-07-04T02:54:25;7.15;;;4.47;;
17854;SDS011;9053;53.358;6.382;2022-07-04T02:56:54;8.60;;;4.35;;
17854;SDS011;9053;53.358;6.382;2022-07-04T02:59:24;6.63;;;4.15;;
17854;SDS011;9053;53.358;6.382;2022-07-04T03:01:54;7.63;;;4.18;;
17854;SDS011;9053;53.358;6.382;2022-07-04T03:04:24;4.85;;;4.07;;
17854;SDS011;9053;53.358;6.382;2022-07-04T03:06:56;4.70;;;3.80;;
17854;SDS011;9053;53.358;6.382;2022-07-04T03:09:26;6.50;;;4.35;;
17854;SDS011;9053;53.358;6.382;2022-07-04T03:11:56;6.15;;;4.10;;
17854;SDS011;9053;53.358;6.382;2022-07-04T03:14:26;6.78;;;4.35;;
17854;SDS011;9053;53.358;6.382;2022-07-04T03:16:55;4.93;;;4.18;;
17854;SDS011;9053;53.358;6.382;2022-07-04T03:19:25;7.03;;;4.15;;
17854;SDS011;9053;53.358;6.382;2022-07-04T03:21:58;6.70;;;4.60;;
17854;SDS011;9053;53.358;6.382;2022-07-04T03:24:27;6.35;;;4.22;;
17854;SDS011;9053;53.358;6.382;2022-07-04T03:26:57;7.30;;;4.00;;
17854;SDS011;9053;53.358;6.382;2022-07-04T03:29:27;6.32;;;5.07;;
17854;SDS011;9053;53.358;6.382;2022-07-04T03:31:56;4.53;;;3.65;;
17854;SDS011;9053;53.358;6.382;2022-07-04T03:34:26;6.45;;;4.22;;
17854;SDS011;9053;53.358;6.382;2022-07-04T03:36:59;5.60;;;4.07;;
17854;SDS011;9053;53.358;6.382;2022-07-04T03:39:28;6.85;;;4.40;;
17854;SDS011;9053;53.358;6.382;2022-07-04T03:41:58;7.22;;;5.00;;
17854;SDS011;9053;53.358;6.382;2022-07-04T03:44:28;7.75;;;5.07;;
17854;SDS011;9053;53.358;6.382;2022-07-04T03:46:57;7.00;;;4.20;;
17854;SDS011;9053;53.358;6.382;2022-07-04T03:49:28;5.13;;;4.47;;
17854;SDS011;9053;53.358;6.382;2022-07-04T03:52:00;8.73;;;5.03;;
17854;SDS011;9053;53.358;6.382;2022-07-04T03:54:30;7.20;;;5.80;;
17854;SDS011;9053;53.358;6.382;2022-07-04T03:57:00;8.40;;;4.90;;
17854;SDS011;9053;53.358;6.382;2022-07-04T03:59:29;8.38;;;4.97;;
17854;SDS011;9053;53.358;6.382;2022-07-04T04:01:59;8.05;;;4.78;;
17854;SDS011;9053;53.358;6.382;2022-07-04T04:04:32;6.10;;;4.55;;
17854;SDS011;9053;53.358;6.382;2022-07-04T04:07:17;6.30;;;4.20;;
17854;SDS011;9053;53.358;6.382;2022-07-04T04:09:50;5.43;;;4.25;;
17854;SDS011;9053;53.358;6.382;2022-07-04T04:12:19;4.28;;;3.88;;
17854;SDS011;9053;53.358;6.382;2022-07-04T04:14:49;6.65;;;4.00;;
17854;SDS011;9053;53.358;6.382;2022-07-04T04:17:19;7.40;;;3.95;;
17854;SDS011;9053;53.358;6.382;2022-07-04T04:19:49;5.65;;;3.95;;
17854;SDS011;9053;53.358;6.382;2022-07-04T04:22:21;5.07;;;4.45;;
17854;SDS011;9053;53.358;6.382;2022-07-04T04:24:51;4.70;;;4.20;;
17854;SDS011;9053;53.358;6.382;2022-07-04T04:27:21;5.38;;;4.85;;
17854;SDS011;9053;53.358;6.382;2022-07-04T04:29:50;8.95;;;4.43;;
17854;SDS011;9053;53.358;6.382;2022-07-04T04:32:20;5.18;;;4.00;;
17854;SDS011;9053;53.358;6.382;2022-07-04T04:34:50;6.03;;;4.10;;
17854;SDS011;9053;53.358;6.382;2022-07-04T04:37:22;4.65;;;3.60;;
17854;SDS011;9053;53.358;6.382;2022-07-04T04:39:52;4.18;;;3.10;;
17854;SDS011;9053;53.358;6.382;2022-07-04T04:42:22;5.20;;;3.60;;
17854;SDS011;9053;53.358;6.382;2022-07-04T04:44:52;3.50;;;3.20;;
17854;SDS011;9053;53.358;6.382;2022-07-04T04:47:21;5.40;;;3.83;;
17854;SDS011;9053;53.358;6.382;2022-07-04T04:49:51;4.40;;;3.10;;
17854;SDS011;9053;53.358;6.382;2022-07-04T04:52:23;3.80;;;3.40;;
17854;SDS011;9053;53.358;6.382;2022-07-04T04:54:53;5.72;;;3.22;;
17854;SDS011;9053;53.358;6.382;2022-07-04T04:57:23;5.50;;;3.20;;
17854;SDS011;9053;53.358;6.382;2022-07-04T04:59:53;5.65;;;3.42;;
17854;SDS011;9053;53.358;6.382;2022-07-04T05:02:23;5.82;;;4.13;;
17854;SDS011;9053;53.358;6.382;2022-07-04T05:04:53;4.20;;;3.60;;
17854;SDS011;9053;53.358;6.382;2022-07-04T05:07:25;5.47;;;3.83;;
17854;SDS011;9053;53.358;6.382;2022-07-04T05:09:55;8.20;;;4.05;;
17854;SDS011;9053;53.358;6.382;2022-07-04T05:12:26;5.60;;;3.60;;
17854;SDS011;9053;53.358;6.382;2022-07-04T05:14:56;5.13;;;3.53;;
17854;SDS011;9053;53.358;6.382;2022-07-04T05:17:26;4.68;;;3.08;;
17854;SDS011;9053;53.358;6.382;2022-07-04T05:19:56;6.38;;;3.85;;
17854;SDS011;9053;53.358;6.382;2022-07-04T05:22:28;7.22;;;3.88;;
17854;SDS011;9053;53.358;6.382;2022-07-04T05:24:58;6.95;;;3.72;;
17854;SDS011;9053;53.358;6.382;2022-07-04T05:27:27;6.55;;;3.20;;
17854;SDS011;9053;53.358;6.382;2022-07-04T05:29:57;4.53;;;3.10;;
17854;SDS011;9053;53.358;6.382;2022-07-04T05:32:27;4.72;;;3.17;;
17854;SDS011;9053;53.358;6.382;2022-07-04T05:34:57;5.03;;;3.25;;
17854;SDS011;9053;53.358;6.382;2022-07-04T05:37:29;3.58;;;2.42;;
17854;SDS011;9053;53.358;6.382;2022-07-04T05:39:59;3.50;;;2.80;;
17854;SDS011;9053;53.358;6.382;2022-07-04T05:42:29;3.85;;;2.90;;
17854;SDS011;9053;53.358;6.382;2022-07-04T05:44:59;3.50;;;2.90;;
17854;SDS011;9053;53.358;6.382;2022-07-04T05:47:29;4.75;;;3.38;;
17854;SDS011;9053;53.358;6.382;2022-07-04T05:49:58;3.78;;;3.05;;
17854;SDS011;9053;53.358;6.382;2022-07-04T05:52:31;6.40;;;3.53;;
17854;SDS011;9053;53.358;6.382;2022-07-04T05:55:01;6.15;;;3.25;;
17854;SDS011;9053;53.358;6.382;2022-07-04T05:57:30;4.57;;;3.63;;
17854;SDS011;9053;53.358;6.382;2022-07-04T06:00:00;5.75;;;3.10;;
17854;SDS011;9053;53.358;6.382;2022-07-04T06:02:34;5.47;;;3.88;;
17854;SDS011;9053;53.358;6.382;2022-07-04T06:05:04;4.60;;;3.53;;
17854;SDS011;9053;53.358;6.382;2022-07-04T06:07:36;6.07;;;3.20;;
17854;SDS011;9053;53.358;6.382;2022-07-04T06:10:06;5.18;;;3.33;;
17854;SDS011;9053;53.358;6.382;2022-07-04T06:12:37;3.88;;;3.03;;
17854;SDS011;9053;53.358;6.382;2022-07-04T06:15:07;4.57;;;3.50;;
17854;SDS011;9053;53.358;6.382;2022-07-04T06:17:37;4.00;;;2.92;;
17854;SDS011;9053;53.358;6.382;2022-07-04T06:20:08;6.32;;;3.22;;
17854;SDS011;9053;53.358;6.382;2022-07-04T06:22:42;5.38;;;2.83;;
17854;SDS011;9053;53.358;6.382;2022-07-04T06:25:14;5.50;;;2.95;;
17854;SDS011;9053;53.358;6.382;2022-07-04T06:27:46;4.00;;;3.25;;
17854;SDS011;9053;53.358;6.382;2022-07-04T06:30:18;3.65;;;3.13;;
17854;SDS011;9053;53.358;6.382;2022-07-04T06:32:49;3.83;;;3.00;;
17854;SDS011;9053;53.358;6.382;2022-07-04T06:35:21;5.38;;;3.40;;
17854;SDS011;9053;53.358;6.382;2022-07-04T06:38:07;4.65;;;2.55;;
17854;SDS011;9053;53.358;6.382;2022-07-04T06:40:37;5.50;;;2.72;;
17854;SDS011;9053;53.358;6.382;2022-07-04T06:43:07;5.35;;;3.03;;
17854;SDS011;9053;53.358;6.382;2022-07-04T06:45:37;3.65;;;2.60;;
17854;SDS011;9053;53.358;6.382;2022-07-04T06:48:07;4.97;;;2.90;;
17854;SDS011;9053;53.358;6.382;2022-07-04T06:50:43;4.05;;;2.88;;
17854;SDS011;9053;53.358;6.382;2022-07-04T06:53:15;4.50;;;2.63;;
17854;SDS011;9053;53.358;6.382;2022-07-04T06:55:45;4.00;;;2.78;;
17854;SDS011;9053;53.358;6.382;2022-07-04T06:58:15;4.93;;;2.60;;
17854;SDS011;9053;53.358;6.382;2022-07-04T07:00:45;2.97;;;2.30;;
17854;SDS011;9053;53.358;6.382;2022-07-04T07:03:14;6.30;;;2.60;;
17854;SDS011;9053;53.358;6.382;2022-07-04T07:05:44;3.50;;;2.00;;
17854;SDS011;9053;53.358;6.382;2022-07-04T07:08:28;2.67;;;1.90;;
17854;SDS011;9053;53.358;6.382;2022-07-04T07:10:58;2.10;;;1.73;;
17854;SDS011;9053;53.358;6.382;2022-07-04T07:13:40;4.00;;;2.05;;
17854;SDS011;9053;53.358;6.382;2022-07-04T07:16:10;3.50;;;1.80;;
17854;SDS011;9053;53.358;6.382;2022-07-04T07:18:41;5.40;;;2.13;;
17854;SDS011;9053;53.358;6.382;2022-07-04T07:21:12;3.38;;;1.80;;
17854;SDS011;9053;53.358;6.382;2022-07-04T07:23:45;5.03;;;1.90;;
17854;SDS011;9053;53.358;6.382;2022-07-04T07:26:16;2.22;;;1.50;;
17854;SDS011;9053;53.358;6.382;2022-07-04T07:28:45;5.10;;;1.55;;
17854;SDS011;9053;53.358;6.382;2022-07-04T07:31:15;5.40;;;1.60;;
17854;SDS011;9053;53.358;6.382;2022-07-04T07:33:45;2.53;;;1.45;;
17854;SDS011;9053;53.358;6.382;2022-07-04T07:36:15;3.05;;;1.60;;
17854;SDS011;9053;53.358;6.382;2022-07-04T07:38:47;3.03;;;1.65;;
17854;SDS011;9053;53.358;6.382;2022-07-04T07:41:19;3.53;;;1.60;;
17854;SDS011;9053;53.358;6.382;2022-07-04T07:43:49;4.00;;;1.27;;
17854;SDS011;9053;53.358;6.382;2022-07-04T07:46:18;3.42;;;1.40;;
17854;SDS011;9053;53.358;6.382;2022-07-04T07:48:48;3.70;;;1.42;;
17854;SDS011;9053;53.358;6.382;2022-07-04T07:51:18;2.60;;;1.25;;
17854;SDS011;9053;53.358;6.382;2022-07-04T07:53:50;2.58;;;1.20;;
17854;SDS011;9053;53.358;6.382;2022-07-04T07:56:40;1.98;;;1.20;;
17854;SDS011;9053;53.358;6.382;2022-07-04T07:59:10;2.20;;;1.30;;
17854;SDS011;9053;53.358;6.382;2022-07-04T08:01:40;2.13;;;1.20;;
17854;SDS011;9053;53.358;6.382;2022-07-04T08:04:09;1.48;;;1.00;;
17854;SDS011;9053;53.358;6.382;2022-07-04T08:06:52;2.20;;;1.08;;
17854;SDS011;9053;53.358;6.382;2022-07-04T08:09:44;2.88;;;0.95;;
17854;SDS011;9053;53.358;6.382;2022-07-04T08:12:14;1.67;;;0.90;;
17854;SDS011;9053;53.358;6.382;2022-07-04T08:14:44;2.40;;;0.82;;
17854;SDS011;9053;53.358;6.382;2022-07-04T08:17:14;2.65;;;1.00;;
17854;SDS011;9053;53.358;6.382;2022-07-04T08:19:43;2.55;;;1.05;;
17854;SDS011;9053;53.358;6.382;2022-07-04T08:22:14;2.28;;;1.05;;
17854;SDS011;9053;53.358;6.382;2022-07-04T08:24:46;1.58;;;0.88;;
17854;SDS011;9053;53.358;6.382;2022-07-04T08:27:16;2.53;;;1.25;;
17854;SDS011;9053;53.358;6.382;2022-07-04T08:29:46;3.45;;;1.05;;
17854;SDS011;9053;53.358;6.382;2022-07-04T08:32:16;2.58;;;1.00;;
17854;SDS011;9053;53.358;6.382;2022-07-04T08:34:46;2.13;;;0.90;;
17854;SDS011;9053;53.358;6.382;2022-07-04T08:37:16;1.58;;;0.80;;
17854;SDS011;9053;53.358;6.382;2022-07-04T08:39:48;3.08;;;1.00;;
17854;SDS011;9053;53.358;6.382;2022-07-04T08:42:19;3.05;;;1.00;;
17854;SDS011;9053;53.358;6.382;2022-07-04T08:44:51;2.55;;;0.88;;
17854;SDS011;9053;53.358;6.382;2022-07-04T08:47:23;1.58;;;1.08;;
17854;SDS011;9053;53.358;6.382;2022-07-04T08:49:54;1.63;;;0.90;;
17854;SDS011;9053;53.358;6.382;2022-07-04T08:52:30;1.55;;;0.95;;
17854;SDS011;9053;53.358;6.382;2022-07-04T08:55:08;2.00;;;1.10;;
17854;SDS011;9053;53.358;6.382;2022-07-04T08:57:51;3.33;;;0.80;;
17854;SDS011;9053;53.358;6.382;2022-07-04T09:00:34;1.35;;;0.90;;
17854;SDS011;9053;53.358;6.382;2022-07-04T09:03:05;1.73;;;0.90;;
17854;SDS011;9053;53.358;6.382;2022-07-04T09:05:35;1.98;;;0.98;;
17854;SDS011;9053;53.358;6.382;2022-07-04T09:08:05;3.42;;;1.00;;
17854;SDS011;9053;53.358;6.382;2022-07-04T09:10:38;1.95;;;0.95;;
17854;SDS011;9053;53.358;6.382;2022-07-04T09:13:08;2.95;;;0.90;;
17854;SDS011;9053;53.358;6.382;2022-07-04T09:15:41;1.98;;;0.93;;
17854;SDS011;9053;53.358;6.382;2022-07-04T09:18:21;1.50;;;0.98;;
17854;SDS011;9053;53.358;6.382;2022-07-04T09:20:53;3.05;;;1.20;;
17854;SDS011;9053;53.358;6.382;2022-07-04T09:23:25;1.90;;;1.23;;
17854;SDS011;9053;53.358;6.382;2022-07-04T09:26:10;1.30;;;0.93;;
17854;SDS011;9053;53.358;6.382;2022-07-04T09:28:42;3.85;;;1.33;;
17854;SDS011;9053;53.358;6.382;2022-07-04T09:31:17;2.75;;;1.20;;
17854;SDS011;9053;53.358;6.382;2022-07-04T09:33:50;2.20;;;1.13;;
17854;SDS011;9053;53.358;6.382;2022-07-04T09:36:22;3.30;;;1.27;;
17854;SDS011;9053;53.358;6.382;2022-07-04T09:39:10;2.05;;;1.20;;
17854;SDS011;9053;53.358;6.382;2022-07-04T09:41:55;3.08;;;1.10;;
17854;SDS011;9053;53.358;6.382;2022-07-04T09:44:28;3.15;;;1.13;;
17854;SDS011;9053;53.358;6.382;2022-07-04T09:47:19;1.65;;;1.13;;
17854;SDS011;9053;53.358;6.382;2022-07-04T09:49:58;2.78;;;1.15;;
17854;SDS011;9053;53.358;6.382;2022-07-04T09:52:28;1.83;;;0.98;;
17854;SDS011;9053;53.358;6.382;2022-07-04T09:54:59;1.42;;;0.95;;
17854;SDS011;9053;53.358;6.382;2022-07-04T09:57:34;2.70;;;1.30;;
17854;SDS011;9053;53.358;6.382;2022-07-04T10:00:17;3.05;;;1.33;;
17854;SDS011;9053;53.358;6.382;2022-07-04T10:02:49;2.25;;;1.20;;
17854;SDS011;9053;53.358;6.382;2022-07-04T10:05:21;3.10;;;1.30;;
17854;SDS011;9053;53.358;6.382;2022-07-04T10:07:53;2.60;;;1.30;;
17854;SDS011;9053;53.358;6.382;2022-07-04T10:10:25;3.67;;;1.30;;
17854;SDS011;9053;53.358;6.382;2022-07-04T10:13:01;3.42;;;1.10;;
17854;SDS011;9053;53.358;6.382;2022-07-04T10:15:33;1.67;;;1.08;;
17854;SDS011;9053;53.358;6.382;2022-07-04T10:18:04;1.60;;;1.00;;
17854;SDS011;9053;53.358;6.382;2022-07-04T10:20:34;2.58;;;1.17;;
17854;SDS011;9053;53.358;6.382;2022-07-04T10:23:04;2.88;;;1.10;;
17854;SDS011;9053;53.358;6.382;2022-07-04T10:25:38;5.00;;;1.60;;
17854;SDS011;9053;53.358;6.382;2022-07-04T10:28:11;3.55;;;1.35;;
17854;SDS011;9053;53.358;6.382;2022-07-04T10:30:41;2.03;;;1.20;;
17854;SDS011;9053;53.358;6.382;2022-07-04T10:33:12;2.28;;;1.20;;
17854;SDS011;9053;53.358;6.382;2022-07-04T10:35:49;2.17;;;1.30;;
17854;SDS011;9053;53.358;6.382;2022-07-04T10:38:21;2.05;;;1.17;;
17854;SDS011;9053;53.358;6.382;2022-07-04T10:40:52;1.40;;;0.90;;
17854;SDS011;9053;53.358;6.382;2022-07-04T10:43:39;2.97;;;1.00;;
17854;SDS011;9053;53.358;6.382;2022-07-04T10:49:20;1.75;;;1.02;;
17854;SDS011;9053;53.358;6.382;2022-07-04T10:51:55;1.48;;;0.82;;
17854;SDS011;9053;53.358;6.382;2022-07-04T10:54:37;2.17;;;1.00;;
17854;SDS011;9053;53.358;6.382;2022-07-04T10:57:12;1.98;;;1.17;;
17854;SDS011;9053;53.358;6.382;2022-07-04T11:00:01;1.73;;;1.33;;
17854;SDS011;9053;53.358;6.382;2022-07-04T11:02:34;2.58;;;1.20;;
17854;SDS011;9053;53.358;6.382;2022-07-04T11:05:06;2.22;;;1.00;;
17854;SDS011;9053;53.358;6.382;2022-07-04T11:10:27;3.60;;;1.40;;
17854;SDS011;9053;53.358;6.382;2022-07-04T11:13:14;3.38;;;1.30;;
17854;SDS011;9053;53.358;6.382;2022-07-04T11:16:00;2.65;;;1.48;;
17854;SDS011;9053;53.358;6.382;2022-07-04T11:18:40;3.28;;;1.15;;
17854;SDS011;9053;53.358;6.382;2022-07-04T11:21:14;2.88;;;1.10;;
17854;SDS011;9053;53.358;6.382;2022-07-04T11:23:52;1.98;;;1.10;;
17854;SDS011;9053;53.358;6.382;2022-07-04T11:26:23;1.88;;;1.02;;
17854;SDS011;9053;53.358;6.382;2022-07-04T11:28:54;2.83;;;1.17;;
17854;SDS011;9053;53.358;6.382;2022-07-04T11:31:40;2.90;;;1.33;;
17854;SDS011;9053;53.358;6.382;2022-07-04T11:34:12;1.80;;;1.08;;
17854;SDS011;9053;53.358;6.382;2022-07-04T11:36:42;2.38;;;1.02;;
17854;SDS011;9053;53.358;6.382;2022-07-04T11:39:13;2.58;;;1.20;;
17854;SDS011;9053;53.358;6.382;2022-07-04T11:41:46;2.30;;;1.05;;
17854;SDS011;9053;53.358;6.382;2022-07-04T11:44:31;3.90;;;1.23;;
17854;SDS011;9053;53.358;6.382;2022-07-04T11:47:17;2.85;;;1.00;;
17854;SDS011;9053;53.358;6.382;2022-07-04T11:49:49;3.45;;;1.42;;
17854;SDS011;9053;53.358;6.382;2022-07-04T11:52:20;4.13;;;1.30;;
17854;SDS011;9053;53.358;6.382;2022-07-04T11:55:12;2.58;;;1.00;;
17854;SDS011;9053;53.358;6.382;2022-07-04T11:57:43;1.90;;;1.10;;
17854;SDS011;9053;53.358;6.382;2022-07-04T12:00:16;3.58;;;1.10;;
17854;SDS011;9053;53.358;6.382;2022-07-04T12:02:50;3.58;;;1.13;;
17854;SDS011;9053;53.358;6.382;2022-07-04T12:05:20;2.92;;;1.23;;
17854;SDS011;9053;53.358;6.382;2022-07-04T12:07:50;1.35;;;0.93;;
17854;SDS011;9053;53.358;6.382;2022-07-04T12:10:39;6.47;;;1.05;;
17854;SDS011;9053;53.358;6.382;2022-07-04T12:13:13;2.95;;;1.02;;
17854;SDS011;9053;53.358;6.382;2022-07-04T12:15:46;1.77;;;1.10;;
17854;SDS011;9053;53.358;6.382;2022-07-04T12:18:22;1.65;;;0.90;;
17854;SDS011;9053;53.358;6.382;2022-07-04T12:20:54;1.40;;;0.80;;
17854;SDS011;9053;53.358;6.382;2022-07-04T12:23:39;3.50;;;1.10;;
17854;SDS011;9053;53.358;6.382;2022-07-04T12:26:29;2.80;;;0.98;;
17854;SDS011;9053;53.358;6.382;2022-07-04T12:29:01;3.58;;;1.08;;
17854;SDS011;9053;53.358;6.382;2022-07-04T12:31:39;3.25;;;1.10;;
17854;SDS011;9053;53.358;6.382;2022-07-04T12:34:16;2.40;;;0.95;;
17854;SDS011;9053;53.358;6.382;2022-07-04T12:36:50;3.50;;;0.90;;
17854;SDS011;9053;53.358;6.382;2022-07-04T12:39:29;2.88;;;1.30;;
17854;SDS011;9053;53.358;6.382;2022-07-04T12:42:06;1.20;;;0.90;;
17854;SDS011;9053;53.358;6.382;2022-07-04T12:44:37;2.72;;;1.10;;
17854;SDS011;9053;53.358;6.382;2022-07-04T12:47:08;2.25;;;1.00;;
17854;SDS011;9053;53.358;6.382;2022-07-04T12:49:50;2.97;;;1.00;;
17854;SDS011;9053;53.358;6.382;2022-07-04T12:52:20;2.63;;;1.30;;
17854;SDS011;9053;53.358;6.382;2022-07-04T12:55:03;2.25;;;1.02;;
17854;SDS011;9053;53.358;6.382;2022-07-04T12:57:35;2.25;;;1.00;;
17854;SDS011;9053;53.358;6.382;2022-07-04T13:00:06;2.78;;;1.20;;
17854;SDS011;9053;53.358;6.382;2022-07-04T13:02:58;2.30;;;1.10;;
17854;SDS011;9053;53.358;6.382;2022-07-04T13:05:31;2.40;;;1.10;;
17854;SDS011;9053;53.358;6.382;2022-07-04T13:08:03;2.05;;;1.13;;
17854;SDS011;9053;53.358;6.382;2022-07-04T13:10:33;2.28;;;0.98;;
17854;SDS011;9053;53.358;6.382;2022-07-04T13:13:03;2.63;;;1.20;;
17854;SDS011;9053;53.358;6.382;2022-07-04T13:15:33;3.13;;;1.10;;
17854;SDS011;9053;53.358;6.382;2022-07-04T13:18:03;3.75;;;1.13;;
17854;SDS011;9053;53.358;6.382;2022-07-04T13:20:36;2.83;;;1.20;;
17854;SDS011;9053;53.358;6.382;2022-07-04T13:23:05;2.55;;;0.88;;
17854;SDS011;9053;53.358;6.382;2022-07-04T13:25:45;2.05;;;0.95;;
17854;SDS011;9053;53.358;6.382;2022-07-04T13:28:14;2.20;;;0.90;;
17854;SDS011;9053;53.358;6.382;2022-07-04T13:30:44;2.03;;;0.80;;
17854;SDS011;9053;53.358;6.382;2022-07-04T13:33:14;3.85;;;0.85;;
17854;SDS011;9053;53.358;6.382;2022-07-04T13:35:47;1.90;;;1.02;;
17854;SDS011;9053;53.358;6.382;2022-07-04T13:38:17;2.17;;;0.93;;
17854;SDS011;9053;53.358;6.382;2022-07-04T13:40:47;2.25;;;0.80;;
17854;SDS011;9053;53.358;6.382;2022-07-04T13:43:17;1.92;;;1.00;;
17854;SDS011;9053;53.358;6.382;2022-07-04T13:45:46;2.30;;;0.90;;
17854;SDS011;9053;53.358;6.382;2022-07-04T13:48:16;2.28;;;0.90;;
17854;SDS011;9053;53.358;6.382;2022-07-04T13:50:49;1.85;;;0.80;;
17854;SDS011;9053;53.358;6.382;2022-07-04T13:53:19;1.60;;;0.70;;
17854;SDS011;9053;53.358;6.382;2022-07-04T13:55:49;3.10;;;1.00;;
17854;SDS011;9053;53.358;6.382;2022-07-04T13:58:19;1.95;;;0.95;;
17854;SDS011;9053;53.358;6.382;2022-07-04T14:00:49;1.65;;;0.70;;
17854;SDS011;9053;53.358;6.382;2022-07-04T14:03:18;0.63;;;0.50;;
17854;SDS011;9053;53.358;6.382;2022-07-04T14:05:51;2.15;;;0.85;;
17854;SDS011;9053;53.358;6.382;2022-07-04T14:08:20;1.25;;;0.70;;
17854;SDS011;9053;53.358;6.382;2022-07-04T14:10:50;1.23;;;0.60;;
17854;SDS011;9053;53.358;6.382;2022-07-04T14:13:20;1.23;;;0.60;;
17854;SDS011;9053;53.358;6.382;2022-07-04T14:15:50;2.85;;;0.90;;
17854;SDS011;9053;53.358;6.382;2022-07-04T14:18:20;2.15;;;0.80;;
17854;SDS011;9053;53.358;6.382;2022-07-04T14:20:52;1.65;;;0.70;;
17854;SDS011;9053;53.358;6.382;2022-07-04T14:23:22;2.35;;;0.70;;
17854;SDS011;9053;53.358;6.382;2022-07-04T14:26:04;2.15;;;0.73;;
17854;SDS011;9053;53.358;6.382;2022-07-04T14:28:34;2.53;;;0.98;;
17854;SDS011;9053;53.358;6.382;2022-07-04T14:31:04;1.73;;;0.73;;
17854;SDS011;9053;53.358;6.382;2022-07-04T14:33:34;2.25;;;0.63;;
17854;SDS011;9053;53.358;6.382;2022-07-04T14:36:07;2.17;;;0.85;;
17854;SDS011;9053;53.358;6.382;2022-07-04T14:38:37;2.67;;;0.70;;
17854;SDS011;9053;53.358;6.382;2022-07-04T14:41:07;1.13;;;0.50;;
17854;SDS011;9053;53.358;6.382;2022-07-04T14:43:40;2.83;;;0.90;;
17854;SDS011;9053;53.358;6.382;2022-07-04T14:46:11;1.30;;;0.77;;
17854;SDS011;9053;53.358;6.382;2022-07-04T14:48:41;1.58;;;0.75;;
17854;SDS011;9053;53.358;6.382;2022-07-04T14:51:13;2.08;;;0.65;;
17854;SDS011;9053;53.358;6.382;2022-07-04T14:53:43;1.80;;;0.73;;
17854;SDS011;9053;53.358;6.382;2022-07-04T14:56:13;1.15;;;0.80;;
17854;SDS011;9053;53.358;6.382;2022-07-04T14:58:43;1.75;;;0.70;;
17854;SDS011;9053;53.358;6.382;2022-07-04T15:01:12;1.52;;;0.57;;
17854;SDS011;9053;53.358;6.382;2022-07-04T15:03:42;3.45;;;0.70;;
17854;SDS011;9053;53.358;6.382;2022-07-04T15:06:15;2.15;;;0.60;;
17854;SDS011;9053;53.358;6.382;2022-07-04T15:08:45;2.05;;;0.82;;
17854;SDS011;9053;53.358;6.382;2022-07-04T15:11:14;1.33;;;0.60;;
17854;SDS011;9053;53.358;6.382;2022-07-04T15:13:46;2.67;;;0.60;;
17854;SDS011;9053;53.358;6.382;2022-07-04T15:16:16;0.98;;;0.70;;
17854;SDS011;9053;53.358;6.382;2022-07-04T15:18:48;2.50;;;0.65;;
17854;SDS011;9053;53.358;6.382;2022-07-04T15:21:21;1.13;;;0.60;;
17854;SDS011;9053;53.358;6.382;2022-07-04T15:24:04;2.88;;;0.70;;
17854;SDS011;9053;53.358;6.382;2022-07-04T15:26:42;1.70;;;0.65;;
17854;SDS011;9053;53.358;6.382;2022-07-04T15:29:13;3.33;;;0.80;;
17854;SDS011;9053;53.358;6.382;2022-07-04T15:31:43;1.55;;;0.70;;
17854;SDS011;9053;53.358;6.382;2022-07-04T15:34:15;1.52;;;0.80;;
17854;SDS011;9053;53.358;6.382;2022-07-04T15:36:48;2.47;;;0.60;;